createdAt,value
2022-07-29T00:00:17.316Z,29
2022-07-29T00:05:17.114Z,28
2022-07-29T00:10:16.944Z,26
2022-07-29T00:15:17.271Z,24
2022-07-29T00:25:17.130Z,23
2022-07-29T00:30:17.271Z,23
2022-07-29T00:35:17.232Z,24
2022-07-29T00:40:17.045Z,23
2022-07-29T00:45:17.290Z,23
2022-07-29T00:50:17.045Z,21
2022-07-29T00:55:17.319Z,20
2022-07-29T01:00:17.359Z,21
2022-07-29T01:05:17.413Z,20
2022-07-29T01:10:17.233Z,19
2022-07-29T01:15:17.210Z,20
2022-07-29T01:20:17.041Z,20
2022-07-29T01:25:17.480Z,19
2022-07-29T01:30:17.273Z,18
2022-07-29T01:35:17.294Z,16
2022-07-29T01:40:17.250Z,16
2022-07-29T01:45:18.496Z,16
2022-07-29T01:50:17.254Z,13
2022-07-29T01:55:17.373Z,14
2022-07-29T02:00:17.597Z,15
2022-07-29T02:05:17.612Z,13
2022-07-29T02:10:17.189Z,13
2022-07-29T02:15:17.619Z,11
2022-07-29T02:20:17.269Z,10
2022-07-29T02:25:17.260Z,10
2022-07-29T02:30:17.359Z,10
2022-07-29T02:35:17.630Z,12
2022-07-29T02:40:17.293Z,13
2022-07-29T02:45:17.568Z,13
2022-07-29T02:50:17.361Z,13
2022-07-29T02:55:17.546Z,14
2022-07-29T03:00:17.467Z,15
2022-07-29T03:05:17.442Z,15
2022-07-29T03:10:17.504Z,14
2022-07-29T03:15:17.635Z,13
2022-07-29T03:20:17.338Z,16
2022-07-29T03:25:17.774Z,17
2022-07-29T03:30:21.736Z,15
2022-07-29T03:35:17.749Z,14
2022-07-29T03:40:17.448Z,16
2022-07-29T03:45:19.176Z,14
2022-07-29T03:50:17.405Z,15
2022-07-29T03:55:17.560Z,15
2022-07-29T04:00:16.655Z,14
2022-07-29T04:05:16.600Z,12
2022-07-29T04:10:16.629Z,11
2022-07-29T04:15:17.182Z,11
2022-07-29T04:20:16.588Z,12
2022-07-29T04:25:16.845Z,14
2022-07-29T04:30:16.622Z,15
2022-07-29T04:35:16.818Z,13
2022-07-29T04:40:16.490Z,14
2022-07-29T04:45:22.561Z,14
2022-07-29T04:50:16.559Z,14
2022-07-29T04:55:16.804Z,12
2022-07-29T05:00:16.671Z,12
2022-07-29T05:05:16.664Z,11
2022-07-29T05:10:16.512Z,10
2022-07-29T05:15:16.877Z,9
2022-07-29T05:20:16.624Z,9
2022-07-29T05:25:16.756Z,10
2022-07-29T05:30:16.699Z,11
2022-07-29T05:35:16.974Z,10
2022-07-29T05:40:16.784Z,10
2022-07-29T05:45:18.020Z,11
2022-07-29T05:50:16.761Z,10
2022-07-29T05:55:16.982Z,10
2022-07-29T06:00:16.935Z,11
2022-07-29T06:05:17.415Z,12
2022-07-29T06:10:16.746Z,12
2022-07-29T06:15:16.929Z,12
2022-07-29T06:20:16.953Z,12
2022-07-29T06:25:16.797Z,12
2022-07-29T06:30:16.910Z,12
2022-07-29T06:35:54.960Z,11
2022-07-29T06:40:16.778Z,11
2022-07-29T06:45:17.147Z,9
2022-07-29T06:50:16.966Z,10
2022-07-29T06:55:24.737Z,11
2022-07-29T07:00:16.921Z,11
2022-07-29T07:05:16.983Z,11
2022-07-29T07:10:16.784Z,10
2022-07-29T07:15:17.403Z,10
2022-07-29T07:20:17.021Z,10
2022-07-29T07:25:16.975Z,10
2022-07-29T07:30:17.020Z,10
2022-07-29T07:35:17.041Z,10
2022-07-29T07:40:18.847Z,10
2022-07-29T07:45:18.319Z,10
2022-07-29T07:50:19.358Z,12
2022-07-29T07:55:17.236Z,12
2022-07-29T08:00:16.981Z,12
2022-07-29T08:05:17.204Z,11
2022-07-29T08:10:17.007Z,12
2022-07-29T08:15:17.229Z,11
2022-07-29T08:20:17.121Z,10
2022-07-29T08:25:17.072Z,10
2022-07-29T08:30:17.345Z,12
2022-07-29T08:35:17.187Z,13
2022-07-29T08:40:17.060Z,13
2022-07-29T08:45:17.219Z,12
2022-07-29T08:50:17.045Z,12
2022-07-29T08:55:21.335Z,11
2022-07-29T09:00:17.212Z,10
2022-07-29T09:05:17.408Z,8
2022-07-29T09:10:17.203Z,9
2022-07-29T09:15:17.435Z,9
2022-07-29T09:20:17.070Z,9
2022-07-29T09:25:17.200Z,9
2022-07-29T09:30:30.352Z,8
2022-07-29T09:35:17.159Z,9
2022-07-29T09:40:17.338Z,9
2022-07-29T09:45:18.208Z,9
2022-07-29T09:50:17.187Z,10
2022-07-29T09:55:18.322Z,11
2022-07-29T10:00:18.949Z,10
2022-07-29T10:05:17.274Z,10
2022-07-29T10:10:17.388Z,10
2022-07-29T10:15:17.493Z,9
2022-07-29T10:20:17.292Z,10
2022-07-29T10:25:17.364Z,10
2022-07-29T10:30:17.307Z,9
2022-07-29T10:35:17.551Z,7
2022-07-29T10:40:17.314Z,7
2022-07-29T10:45:17.480Z,7
2022-07-29T10:50:17.580Z,7
2022-07-29T10:55:17.339Z,8
2022-07-29T11:00:17.519Z,7
2022-07-29T11:05:17.389Z,8
2022-07-29T11:10:17.806Z,9
2022-07-29T11:15:17.703Z,10
2022-07-29T11:20:17.218Z,10
2022-07-29T11:25:17.420Z,8
2022-07-29T11:30:17.617Z,8
2022-07-29T11:35:18.616Z,8
2022-07-29T11:40:17.406Z,8
2022-07-29T11:45:44.362Z,8
2022-07-29T11:50:17.372Z,8
2022-07-29T11:55:17.510Z,7
2022-07-29T12:00:18.701Z,8
2022-07-29T12:05:35.975Z,9
2022-07-29T12:10:19.875Z,10
2022-07-29T12:15:17.729Z,10
2022-07-29T12:20:17.616Z,10
2022-07-29T12:25:32.903Z,10
2022-07-29T12:30:17.611Z,10
2022-07-29T12:35:17.666Z,10
2022-07-29T12:40:17.468Z,10
2022-07-29T12:45:17.926Z,10
2022-07-29T12:50:17.695Z,10
2022-07-29T12:55:17.562Z,9
2022-07-29T13:00:17.601Z,10
2022-07-29T13:05:17.570Z,10
2022-07-29T13:10:17.543Z,11
2022-07-29T13:15:17.745Z,11
2022-07-29T13:20:17.835Z,12
2022-07-29T13:25:17.877Z,13
2022-07-29T13:30:18.455Z,14
2022-07-29T13:35:17.746Z,13
2022-07-29T13:40:17.576Z,12
2022-07-29T13:45:18.531Z,14
2022-07-29T13:50:17.642Z,12
2022-07-29T13:55:17.689Z,12
2022-07-29T14:06:27.491Z,10
2022-07-29T14:10:20.131Z,11
2022-07-29T14:15:17.987Z,12
2022-07-29T14:20:17.655Z,13
2022-07-29T14:25:17.836Z,11
2022-07-29T14:30:17.956Z,10
2022-07-29T14:35:17.857Z,11
2022-07-29T14:40:17.685Z,12
2022-07-29T14:45:18.003Z,12
2022-07-29T14:50:17.845Z,13
2022-07-29T14:55:20.131Z,12
2022-07-29T15:00:32.683Z,11
2022-07-29T15:05:17.885Z,10
2022-07-29T15:10:18.405Z,8
2022-07-29T15:15:18.138Z,12
2022-07-29T15:20:18.130Z,10
2022-07-29T15:25:17.945Z,8
2022-07-29T15:30:29.021Z,8
2022-07-29T15:35:18.247Z,10
2022-07-29T15:40:18.166Z,11
2022-07-29T15:45:19.334Z,10
2022-07-29T15:50:17.917Z,13
2022-07-29T15:55:18.036Z,11
2022-07-29T16:00:18.128Z,11
2022-07-29T16:05:17.961Z,13
2022-07-29T16:10:18.012Z,11
2022-07-29T16:15:18.192Z,13
2022-07-29T16:20:18.174Z,12
2022-07-29T16:25:18.337Z,13
2022-07-29T16:30:18.178Z,14
2022-07-29T16:35:18.218Z,11
2022-07-29T16:40:18.023Z,11
2022-07-29T16:45:21.169Z,13
2022-07-29T16:50:18.097Z,10
2022-07-29T16:55:18.144Z,10
2022-07-29T17:00:18.459Z,16
2022-07-29T17:05:18.142Z,12
2022-07-29T17:10:18.001Z,10
2022-07-29T17:15:18.270Z,12
2022-07-29T17:20:17.966Z,9
2022-07-29T17:25:20.925Z,11
2022-07-29T17:30:18.389Z,15
2022-07-29T17:35:18.293Z,14
2022-07-29T17:40:18.131Z,15
2022-07-29T17:45:19.453Z,17
2022-07-29T17:50:18.177Z,17
2022-07-29T17:55:18.162Z,16
2022-07-29T18:00:16.250Z,14
2022-07-29T18:05:16.372Z,13
2022-07-29T18:10:16.326Z,15
2022-07-29T18:15:16.289Z,16
2022-07-29T18:20:16.168Z,14
2022-07-29T18:25:16.481Z,12
2022-07-29T18:30:16.492Z,15
2022-07-29T18:35:16.313Z,12
2022-07-29T18:40:16.295Z,11
2022-07-29T18:45:19.737Z,10
2022-07-29T18:50:16.589Z,11
2022-07-29T18:55:16.293Z,12
2022-07-29T19:00:16.557Z,15
2022-07-29T19:05:16.340Z,18
2022-07-29T19:10:16.354Z,17
2022-07-29T19:15:20.098Z,13
2022-07-29T19:20:16.412Z,11
2022-07-29T19:25:16.382Z,13
2022-07-29T19:30:16.331Z,12
2022-07-29T19:35:16.315Z,16
2022-07-29T19:40:16.530Z,22
2022-07-29T19:45:18.238Z,22
2022-07-29T19:50:16.374Z,15
2022-07-29T19:55:16.447Z,13
2022-07-29T20:00:16.683Z,11
2022-07-29T20:05:16.456Z,13
2022-07-29T20:10:19.533Z,11
2022-07-29T20:15:16.791Z,10
2022-07-29T20:20:16.722Z,11
2022-07-29T20:25:16.481Z,13
2022-07-29T20:30:16.592Z,11
2022-07-29T20:35:16.469Z,11
2022-07-29T20:40:16.640Z,11
2022-07-29T20:45:16.649Z,11
2022-07-29T20:50:16.532Z,9
2022-07-29T20:55:16.733Z,9
2022-07-29T21:00:16.869Z,10
2022-07-29T21:05:16.555Z,12
2022-07-29T21:10:16.575Z,12
2022-07-29T21:15:16.754Z,9
2022-07-29T21:20:16.646Z,11
2022-07-29T21:25:16.938Z,11
2022-07-29T21:30:16.862Z,11
2022-07-29T21:35:30.277Z,9
2022-07-29T21:40:16.649Z,10
2022-07-29T21:45:17.501Z,10
2022-07-29T21:50:16.598Z,10
2022-07-29T21:55:16.747Z,10
2022-07-29T22:00:16.760Z,8
2022-07-29T22:05:16.891Z,10
2022-07-29T22:10:16.596Z,6
2022-07-29T22:15:17.496Z,5
2022-07-29T22:20:16.654Z,7
2022-07-29T22:25:16.677Z,3
2022-07-29T22:30:16.873Z,4
2022-07-29T22:35:17.431Z,4
2022-07-29T22:40:16.656Z,4
2022-07-29T22:45:17.168Z,4
2022-07-29T22:50:16.859Z,2
2022-07-29T22:55:17.362Z,6
2022-07-29T23:00:16.839Z,4
2022-07-29T23:05:16.854Z,5
2022-07-29T23:10:16.857Z,6
2022-07-29T23:15:17.484Z,7
2022-07-29T23:20:16.781Z,6
2022-07-29T23:25:16.834Z,8
2022-07-29T23:30:17.375Z,9
2022-07-29T23:35:16.912Z,9
2022-07-29T23:40:17.118Z,8
2022-07-29T23:45:18.526Z,10
2022-07-29T23:50:16.862Z,13
2022-07-29T23:55:36.767Z,9
